sensor_id;sensor_type;location;lat;lon;timestamp;pressure;altitude;pressure_sealevel;temperature;humidity
63691;BME280;49837;57.280;27.070;2023-08-06T00:00:59;99945.86;;;18.09;100.0
63691;BME280;49837;57.280;27.070;2023-08-06T00:01:59;99946.48;;;18.12;100.0
63691;BME280;49837;57.280;27.070;2023-08-06T00:02:59;99940.0;;;18.12;100.0
63691;BME280;49837;57.280;27.070;2023-08-06T00:04:00;99937.62;;;18.12;100.0
63691;BME280;49837;57.280;27.070;2023-08-06T00:05:00;99934.94;;;18.12;100.0
63691;BME280;49837;57.280;27.070;2023-08-06T00:06:00;99934.5;;;18.09;100.0
63691;BME280;49837;57.280;27.070;2023-08-06T00:07:01;99935.57;;;18.11;100.0
63691;BME280;49837;57.280;27.070;2023-08-06T00:08:01;99942.06;;;18.07;100.0
63691;BME280;49837;57.280;27.070;2023-08-06T00:09:02;99939.05;;;18.05;100.0
63691;BME280;49837;57.280;27.070;2023-08-06T00:10:02;99944.07;;;18.08;100.0
63691;BME280;49837;57.280;27.070;2023-08-06T00:11:03;99946.56;;;18.07;100.0
63691;BME280;49837;57.280;27.070;2023-08-06T00:12:03;99953.86;;;18.09;100.0
63691;BME280;49837;57.280;27.070;2023-08-06T00:13:03;99951.61;;;18.11;100.0
63691;BME280;49837;57.280;27.070;2023-08-06T00:14:04;99950.3;;;18.12;100.0
63691;BME280;49837;57.280;27.070;2023-08-06T00:15:05;99947.7;;;18.13;100.0
63691;BME280;49837;57.280;27.070;2023-08-06T00:16:13;99947.81;;;18.11;100.0
63691;BME280;49837;57.280;27.070;2023-08-06T00:17:06;99948.62;;;18.09;100.0
63691;BME280;49837;57.280;27.070;2023-08-06T00:18:06;99950.03;;;18.11;100.0
63691;BME280;49837;57.280;27.070;2023-08-06T00:19:07;99946.52;;;18.13;100.0
63691;BME280;49837;57.280;27.070;2023-08-06T00:20:11;99951.03;;;18.12;100.0
63691;BME280;49837;57.280;27.070;2023-08-06T00:21:08;99945.83;;;18.13;100.0
63691;BME280;49837;57.280;27.070;2023-08-06T00:22:08;99940.59;;;18.15;100.0
63691;BME280;49837;57.280;27.070;2023-08-06T00:23:09;99934.23;;;18.1;100.0
63691;BME280;49837;57.280;27.070;2023-08-06T00:24:09;99923.03;;;18.09;100.0
63691;BME280;49837;57.280;27.070;2023-08-06T00:25:13;99915.58;;;18.11;100.0
63691;BME280;49837;57.280;27.070;2023-08-06T00:26:14;99910.12;;;18.12;100.0
63691;BME280;49837;57.280;27.070;2023-08-06T00:27:14;99903.14;;;18.13;100.0
63691;BME280;49837;57.280;27.070;2023-08-06T00:28:14;99904.02;;;18.08;100.0
63691;BME280;49837;57.280;27.070;2023-08-06T00:29:15;99897.88;;;18.09;100.0
63691;BME280;49837;57.280;27.070;2023-08-06T00:30:15;99892.73;;;18.13;100.0
63691;BME280;49837;57.280;27.070;2023-08-06T00:31:15;99889.96;;;18.13;100.0
63691;BME280;49837;57.280;27.070;2023-08-06T00:32:16;99892.84;;;18.14;100.0
63691;BME280;49837;57.280;27.070;2023-08-06T00:33:16;99891.97;;;18.16;100.0
63691;BME280;49837;57.280;27.070;2023-08-06T00:34:17;99888.88;;;18.16;100.0
63691;BME280;49837;57.280;27.070;2023-08-06T00:35:17;99879.11;;;18.14;100.0
63691;BME280;49837;57.280;27.070;2023-08-06T00:36:17;99881.23;;;18.11;100.0
63691;BME280;49837;57.280;27.070;2023-08-06T00:37:18;99883.47;;;18.12;100.0
63691;BME280;49837;57.280;27.070;2023-08-06T00:38:18;99889.92;;;18.12;100.0
63691;BME280;49837;57.280;27.070;2023-08-06T00:39:19;99904.55;;;18.13;100.0
63691;BME280;49837;57.280;27.070;2023-08-06T00:40:20;99912.76;;;18.14;100.0
63691;BME280;49837;57.280;27.070;2023-08-06T00:41:19;99910.88;;;18.15;100.0
63691;BME280;49837;57.280;27.070;2023-08-06T00:42:20;99912.16;;;18.18;100.0
63691;BME280;49837;57.280;27.070;2023-08-06T00:43:20;99910.81;;;18.17;100.0
63691;BME280;49837;57.280;27.070;2023-08-06T00:44:21;99909.66;;;18.14;100.0
63691;BME280;49837;57.280;27.070;2023-08-06T00:45:21;99912.03;;;18.12;100.0
63691;BME280;49837;57.280;27.070;2023-08-06T00:46:21;99910.44;;;18.15;100.0
63691;BME280;49837;57.280;27.070;2023-08-06T00:47:22;99906.83;;;18.15;100.0
63691;BME280;49837;57.280;27.070;2023-08-06T00:48:22;99906.74;;;18.17;100.0
63691;BME280;49837;57.280;27.070;2023-08-06T00:49:22;99905.41;;;18.18;100.0
63691;BME280;49837;57.280;27.070;2023-08-06T00:50:23;99902.73;;;18.19;100.0
63691;BME280;49837;57.280;27.070;2023-08-06T00:51:24;99905.77;;;18.2;100.0
63691;BME280;49837;57.280;27.070;2023-08-06T00:52:24;99906.53;;;18.22;100.0
63691;BME280;49837;57.280;27.070;2023-08-06T00:53:24;99911.78;;;18.21;100.0
63691;BME280;49837;57.280;27.070;2023-08-06T00:54:25;99919.35;;;18.18;100.0
63691;BME280;49837;57.280;27.070;2023-08-06T00:55:25;99922.12;;;18.22;100.0
63691;BME280;49837;57.280;27.070;2023-08-06T00:56:25;99924.01;;;18.25;100.0
63691;BME280;49837;57.280;27.070;2023-08-06T00:57:26;99920.55;;;18.28;100.0
63691;BME280;49837;57.280;27.070;2023-08-06T00:58:26;99916.67;;;18.28;100.0
63691;BME280;49837;57.280;27.070;2023-08-06T00:59:27;99912.78;;;18.27;100.0
63691;BME280;49837;57.280;27.070;2023-08-06T01:00:27;99912.16;;;18.22;100.0
63691;BME280;49837;57.280;27.070;2023-08-06T01:01:27;99912.69;;;18.19;100.0
63691;BME280;49837;57.280;27.070;2023-08-06T01:02:28;99916.25;;;18.23;100.0
63691;BME280;49837;57.280;27.070;2023-08-06T01:03:28;99915.91;;;18.25;100.0
63691;BME280;49837;57.280;27.070;2023-08-06T01:04:28;99920.84;;;18.25;100.0
63691;BME280;49837;57.280;27.070;2023-08-06T01:05:29;99918.0;;;18.24;100.0
63691;BME280;49837;57.280;27.070;2023-08-06T01:11:14;99922.12;;;18.27;100.0
63691;BME280;49837;57.280;27.070;2023-08-06T01:13:53;99929.81;;;18.3;100.0
63691;BME280;49837;57.280;27.070;2023-08-06T01:16:01;99930.98;;;18.31;100.0
63691;BME280;49837;57.280;27.070;2023-08-06T01:16:58;99929.2;;;18.3;100.0
63691;BME280;49837;57.280;27.070;2023-08-06T01:17:59;99925.74;;;18.31;100.0
63691;BME280;49837;57.280;27.070;2023-08-06T01:18:59;99915.62;;;18.3;100.0
63691;BME280;49837;57.280;27.070;2023-08-06T01:19:59;99910.52;;;18.28;100.0
63691;BME280;49837;57.280;27.070;2023-08-06T01:21:00;99903.45;;;18.27;100.0
63691;BME280;49837;57.280;27.070;2023-08-06T01:22:00;99898.63;;;18.24;100.0
63691;BME280;49837;57.280;27.070;2023-08-06T01:23:01;99893.84;;;18.2;100.0
63691;BME280;49837;57.280;27.070;2023-08-06T01:24:01;99894.69;;;18.2;100.0
63691;BME280;49837;57.280;27.070;2023-08-06T01:25:02;99895.09;;;18.19;100.0
63691;BME280;49837;57.280;27.070;2023-08-06T01:27:12;99893.94;;;18.22;100.0
63691;BME280;49837;57.280;27.070;2023-08-06T01:30:25;99899.11;;;18.22;100.0
63691;BME280;49837;57.280;27.070;2023-08-06T01:31:19;99894.53;;;18.24;100.0
63691;BME280;49837;57.280;27.070;2023-08-06T01:32:14;99891.7;;;18.25;100.0
63691;BME280;49837;57.280;27.070;2023-08-06T01:33:21;99893.16;;;18.25;100.0
63691;BME280;49837;57.280;27.070;2023-08-06T01:34:28;99895.41;;;18.28;100.0
63691;BME280;49837;57.280;27.070;2023-08-06T01:35:23;99901.66;;;18.26;100.0
63691;BME280;49837;57.280;27.070;2023-08-06T01:36:24;99901.2;;;18.27;100.0
63691;BME280;49837;57.280;27.070;2023-08-06T01:37:23;99903.73;;;18.27;100.0
63691;BME280;49837;57.280;27.070;2023-08-06T01:38:24;99909.31;;;18.27;100.0
63691;BME280;49837;57.280;27.070;2023-08-06T01:39:24;99913.39;;;18.28;100.0
63691;BME280;49837;57.280;27.070;2023-08-06T01:40:24;99907.81;;;18.29;100.0
63691;BME280;49837;57.280;27.070;2023-08-06T01:41:25;99909.34;;;18.28;100.0
63691;BME280;49837;57.280;27.070;2023-08-06T01:42:25;99905.27;;;18.25;100.0
63691;BME280;49837;57.280;27.070;2023-08-06T01:43:26;99909.45;;;18.23;100.0
63691;BME280;49837;57.280;27.070;2023-08-06T01:44:26;99903.34;;;18.23;100.0
63691;BME280;49837;57.280;27.070;2023-08-06T01:45:28;99907.7;;;18.24;100.0
63691;BME280;49837;57.280;27.070;2023-08-06T01:46:27;99912.59;;;18.24;100.0
63691;BME280;49837;57.280;27.070;2023-08-06T01:47:28;99917.09;;;18.24;100.0
63691;BME280;49837;57.280;27.070;2023-08-06T01:48:28;99919.91;;;18.23;100.0
63691;BME280;49837;57.280;27.070;2023-08-06T01:49:28;99919.39;;;18.25;100.0
63691;BME280;49837;57.280;27.070;2023-08-06T01:50:28;99916.44;;;18.24;100.0
63691;BME280;49837;57.280;27.070;2023-08-06T01:51:29;99915.17;;;18.25;100.0
63691;BME280;49837;57.280;27.070;2023-08-06T01:52:29;99916.92;;;18.24;100.0
63691;BME280;49837;57.280;27.070;2023-08-06T01:53:30;99914.5;;;18.24;100.0
63691;BME280;49837;57.280;27.070;2023-08-06T01:54:30;99915.78;;;18.26;100.0
63691;BME280;49837;57.280;27.070;2023-08-06T01:55:30;99916.94;;;18.28;100.0
63691;BME280;49837;57.280;27.070;2023-08-06T01:56:31;99915.44;;;18.27;100.0
63691;BME280;49837;57.280;27.070;2023-08-06T01:57:31;99910.52;;;18.23;100.0
63691;BME280;49837;57.280;27.070;2023-08-06T01:58:32;99914.3;;;18.23;100.0
63691;BME280;49837;57.280;27.070;2023-08-06T01:59:32;99911.94;;;18.22;100.0
63691;BME280;49837;57.280;27.070;2023-08-06T02:00:32;99913.1;;;18.24;100.0
63691;BME280;49837;57.280;27.070;2023-08-06T02:01:33;99909.03;;;18.25;100.0
63691;BME280;49837;57.280;27.070;2023-08-06T02:02:33;99910.16;;;18.25;100.0
63691;BME280;49837;57.280;27.070;2023-08-06T02:03:33;99907.19;;;18.26;100.0
63691;BME280;49837;57.280;27.070;2023-08-06T02:04:34;99905.92;;;18.26;100.0
63691;BME280;49837;57.280;27.070;2023-08-06T02:05:34;99908.52;;;18.26;100.0
63691;BME280;49837;57.280;27.070;2023-08-06T02:06:35;99908.04;;;18.3;100.0
63691;BME280;49837;57.280;27.070;2023-08-06T02:07:35;99907.34;;;18.3;100.0
63691;BME280;49837;57.280;27.070;2023-08-06T02:08:36;99911.8;;;18.3;100.0
63691;BME280;49837;57.280;27.070;2023-08-06T02:09:36;99915.28;;;18.3;100.0
63691;BME280;49837;57.280;27.070;2023-08-06T02:10:36;99919.9;;;18.3;100.0
63691;BME280;49837;57.280;27.070;2023-08-06T02:11:37;99920.23;;;18.3;100.0
63691;BME280;49837;57.280;27.070;2023-08-06T02:12:37;99919.11;;;18.31;100.0
63691;BME280;49837;57.280;27.070;2023-08-06T02:13:37;99917.23;;;18.31;100.0
63691;BME280;49837;57.280;27.070;2023-08-06T02:14:38;99919.66;;;18.31;100.0
63691;BME280;49837;57.280;27.070;2023-08-06T02:15:45;99920.07;;;18.3;100.0
63691;BME280;49837;57.280;27.070;2023-08-06T02:16:42;99920.2;;;18.3;100.0
63691;BME280;49837;57.280;27.070;2023-08-06T02:17:43;99915.7;;;18.28;100.0
63691;BME280;49837;57.280;27.070;2023-08-06T02:18:43;99917.12;;;18.31;100.0
63691;BME280;49837;57.280;27.070;2023-08-06T02:19:44;99918.58;;;18.27;100.0
63691;BME280;49837;57.280;27.070;2023-08-06T02:20:55;99916.58;;;18.27;100.0
63691;BME280;49837;57.280;27.070;2023-08-06T02:21:48;99918.47;;;18.27;100.0
63691;BME280;49837;57.280;27.070;2023-08-06T02:22:48;99919.0;;;18.26;100.0
63691;BME280;49837;57.280;27.070;2023-08-06T02:23:48;99913.18;;;18.27;100.0
63691;BME280;49837;57.280;27.070;2023-08-06T02:24:49;99908.04;;;18.24;100.0
63691;BME280;49837;57.280;27.070;2023-08-06T02:26:05;99907.73;;;18.26;100.0
63691;BME280;49837;57.280;27.070;2023-08-06T02:26:53;99903.3;;;18.25;100.0
63691;BME280;49837;57.280;27.070;2023-08-06T02:27:53;99907.11;;;18.26;100.0
63691;BME280;49837;57.280;27.070;2023-08-06T02:28:54;99909.38;;;18.25;100.0
63691;BME280;49837;57.280;27.070;2023-08-06T02:29:54;99907.62;;;18.26;100.0
63691;BME280;49837;57.280;27.070;2023-08-06T02:30:54;99907.11;;;18.26;100.0
63691;BME280;49837;57.280;27.070;2023-08-06T02:31:55;99900.75;;;18.27;100.0
63691;BME280;49837;57.280;27.070;2023-08-06T02:32:55;99897.66;;;18.26;100.0
63691;BME280;49837;57.280;27.070;2023-08-06T02:33:55;99889.45;;;18.25;100.0
63691;BME280;49837;57.280;27.070;2023-08-06T02:34:56;99884.12;;;18.25;100.0
63691;BME280;49837;57.280;27.070;2023-08-06T02:36:00;99876.02;;;18.23;100.0
63691;BME280;49837;57.280;27.070;2023-08-06T02:36:58;99873.41;;;18.25;100.0
63691;BME280;49837;57.280;27.070;2023-08-06T02:37:58;99874.78;;;18.24;100.0
63691;BME280;49837;57.280;27.070;2023-08-06T02:38:59;99876.04;;;18.22;100.0
63691;BME280;49837;57.280;27.070;2023-08-06T02:39:59;99876.19;;;18.19;100.0
63691;BME280;49837;57.280;27.070;2023-08-06T02:41:02;99877.63;;;18.2;100.0
63691;BME280;49837;57.280;27.070;2023-08-06T02:42:00;99872.2;;;18.18;100.0
63691;BME280;49837;57.280;27.070;2023-08-06T02:43:00;99872.27;;;18.17;100.0
63691;BME280;49837;57.280;27.070;2023-08-06T02:44:01;99869.06;;;18.17;100.0
63691;BME280;49837;57.280;27.070;2023-08-06T02:45:02;99866.66;;;18.15;100.0
63691;BME280;49837;57.280;27.070;2023-08-06T02:46:02;99864.97;;;18.16;100.0
63691;BME280;49837;57.280;27.070;2023-08-06T02:47:02;99868.73;;;18.15;100.0
63691;BME280;49837;57.280;27.070;2023-08-06T02:48:03;99867.06;;;18.13;100.0
63691;BME280;49837;57.280;27.070;2023-08-06T02:49:03;99862.71;;;18.16;100.0
63691;BME280;49837;57.280;27.070;2023-08-06T02:50:04;99859.73;;;18.16;100.0
63691;BME280;49837;57.280;27.070;2023-08-06T02:51:04;99859.55;;;18.16;100.0
63691;BME280;49837;57.280;27.070;2023-08-06T02:52:05;99851.16;;;18.19;100.0
63691;BME280;49837;57.280;27.070;2023-08-06T02:53:05;99846.62;;;18.15;100.0
63691;BME280;49837;57.280;27.070;2023-08-06T02:54:05;99842.49;;;18.18;100.0
63691;BME280;49837;57.280;27.070;2023-08-06T02:55:06;99837.55;;;18.17;100.0
63691;BME280;49837;57.280;27.070;2023-08-06T02:56:06;99847.26;;;18.18;100.0
63691;BME280;49837;57.280;27.070;2023-08-06T02:57:06;99847.72;;;18.18;100.0
63691;BME280;49837;57.280;27.070;2023-08-06T02:58:06;99848.48;;;18.16;100.0
63691;BME280;49837;57.280;27.070;2023-08-06T02:59:08;99846.44;;;18.17;100.0
63691;BME280;49837;57.280;27.070;2023-08-06T03:00:08;99838.33;;;18.18;100.0
63691;BME280;49837;57.280;27.070;2023-08-06T03:01:07;99844.22;;;18.18;100.0
63691;BME280;49837;57.280;27.070;2023-08-06T03:02:08;99845.86;;;18.19;100.0
63691;BME280;49837;57.280;27.070;2023-08-06T03:03:08;99842.23;;;18.21;100.0
63691;BME280;49837;57.280;27.070;2023-08-06T03:04:11;99840.42;;;18.22;100.0
63691;BME280;49837;57.280;27.070;2023-08-06T03:05:09;99840.53;;;18.22;100.0
63691;BME280;49837;57.280;27.070;2023-08-06T03:06:10;99842.42;;;18.2;100.0
63691;BME280;49837;57.280;27.070;2023-08-06T03:07:10;99844.0;;;18.19;100.0
63691;BME280;49837;57.280;27.070;2023-08-06T03:08:10;99835.76;;;18.17;100.0
63691;BME280;49837;57.280;27.070;2023-08-06T03:09:11;99830.31;;;18.19;100.0
63691;BME280;49837;57.280;27.070;2023-08-06T03:10:11;99832.45;;;18.21;100.0
63691;BME280;49837;57.280;27.070;2023-08-06T03:11:12;99827.42;;;18.23;100.0
63691;BME280;49837;57.280;27.070;2023-08-06T03:12:12;99822.67;;;18.24;100.0
63691;BME280;49837;57.280;27.070;2023-08-06T03:13:12;99824.05;;;18.27;100.0
63691;BME280;49837;57.280;27.070;2023-08-06T03:14:13;99825.44;;;18.28;100.0
63691;BME280;49837;57.280;27.070;2023-08-06T03:15:13;99820.33;;;18.28;100.0
63691;BME280;49837;57.280;27.070;2023-08-06T03:16:14;99814.71;;;18.32;100.0
63691;BME280;49837;57.280;27.070;2023-08-06T03:17:14;99821.53;;;18.31;100.0
63691;BME280;49837;57.280;27.070;2023-08-06T03:18:14;99816.95;;;18.32;100.0
63691;BME280;49837;57.280;27.070;2023-08-06T03:19:15;99819.05;;;18.31;100.0
63691;BME280;49837;57.280;27.070;2023-08-06T03:20:15;99820.06;;;18.31;100.0
63691;BME280;49837;57.280;27.070;2023-08-06T03:21:15;99816.09;;;18.3;100.0
63691;BME280;49837;57.280;27.070;2023-08-06T03:22:16;99812.61;;;18.34;100.0
63691;BME280;49837;57.280;27.070;2023-08-06T03:23:16;99810.34;;;18.36;100.0
63691;BME280;49837;57.280;27.070;2023-08-06T03:24:16;99805.31;;;18.31;100.0
63691;BME280;49837;57.280;27.070;2023-08-06T03:25:17;99805.91;;;18.28;100.0
63691;BME280;49837;57.280;27.070;2023-08-06T03:26:17;99806.08;;;18.3;100.0
63691;BME280;49837;57.280;27.070;2023-08-06T03:27:18;99805.75;;;18.27;100.0
63691;BME280;49837;57.280;27.070;2023-08-06T03:28:18;99804.98;;;18.26;100.0
63691;BME280;49837;57.280;27.070;2023-08-06T03:29:19;99797.58;;;18.28;100.0
63691;BME280;49837;57.280;27.070;2023-08-06T03:30:19;99798.17;;;18.32;100.0
63691;BME280;49837;57.280;27.070;2023-08-06T03:31:22;99794.66;;;18.34;100.0
63691;BME280;49837;57.280;27.070;2023-08-06T03:32:20;99793.7;;;18.34;100.0
63691;BME280;49837;57.280;27.070;2023-08-06T03:33:20;99795.11;;;18.32;100.0
63691;BME280;49837;57.280;27.070;2023-08-06T03:34:21;99798.88;;;18.34;100.0
63691;BME280;49837;57.280;27.070;2023-08-06T03:35:21;99797.83;;;18.35;100.0
63691;BME280;49837;57.280;27.070;2023-08-06T03:36:22;99799.41;;;18.36;100.0
63691;BME280;49837;57.280;27.070;2023-08-06T03:37:22;99803.67;;;18.37;100.0
63691;BME280;49837;57.280;27.070;2023-08-06T03:38:23;99800.4;;;18.38;100.0
63691;BME280;49837;57.280;27.070;2023-08-06T03:39:23;99799.71;;;18.35;100.0
63691;BME280;49837;57.280;27.070;2023-08-06T03:40:23;99794.89;;;18.37;100.0
63691;BME280;49837;57.280;27.070;2023-08-06T03:41:23;99791.12;;;18.37;100.0
63691;BME280;49837;57.280;27.070;2023-08-06T03:42:24;99789.67;;;18.41;100.0
63691;BME280;49837;57.280;27.070;2023-08-06T03:43:24;99787.92;;;18.41;100.0
63691;BME280;49837;57.280;27.070;2023-08-06T03:44:24;99786.14;;;18.39;100.0
63691;BME280;49837;57.280;27.070;2023-08-06T03:45:25;99786.43;;;18.39;100.0
63691;BME280;49837;57.280;27.070;2023-08-06T03:46:25;99781.55;;;18.34;100.0
63691;BME280;49837;57.280;27.070;2023-08-06T03:47:26;99778.04;;;18.39;100.0
63691;BME280;49837;57.280;27.070;2023-08-06T03:48:26;99779.81;;;18.38;100.0
63691;BME280;49837;57.280;27.070;2023-08-06T03:49:26;99782.81;;;18.41;100.0
63691;BME280;49837;57.280;27.070;2023-08-06T03:50:27;99784.33;;;18.45;100.0
63691;BME280;49837;57.280;27.070;2023-08-06T03:51:27;99785.06;;;18.46;100.0
63691;BME280;49837;57.280;27.070;2023-08-06T03:52:28;99783.94;;;18.46;100.0
63691;BME280;49837;57.280;27.070;2023-08-06T03:53:31;99780.01;;;18.49;100.0
63691;BME280;49837;57.280;27.070;2023-08-06T03:54:29;99776.62;;;18.48;100.0
63691;BME280;49837;57.280;27.070;2023-08-06T03:55:29;99778.73;;;18.47;100.0
63691;BME280;49837;57.280;27.070;2023-08-06T03:56:29;99781.79;;;18.49;100.0
63691;BME280;49837;57.280;27.070;2023-08-06T03:57:30;99783.3;;;18.55;100.0
63691;BME280;49837;57.280;27.070;2023-08-06T03:58:30;99780.03;;;18.59;100.0
63691;BME280;49837;57.280;27.070;2023-08-06T03:59:30;99778.56;;;18.63;100.0
63691;BME280;49837;57.280;27.070;2023-08-06T04:00:31;99778.86;;;18.68;100.0
63691;BME280;49837;57.280;27.070;2023-08-06T04:01:31;99770.8;;;18.71;100.0
63691;BME280;49837;57.280;27.070;2023-08-06T04:02:33;99768.24;;;18.81;100.0
63691;BME280;49837;57.280;27.070;2023-08-06T04:03:32;99765.61;;;18.87;100.0
63691;BME280;49837;57.280;27.070;2023-08-06T04:04:32;99762.5;;;18.93;100.0
63691;BME280;49837;57.280;27.070;2023-08-06T04:05:33;99763.42;;;18.95;100.0
63691;BME280;49837;57.280;27.070;2023-08-06T04:06:33;99767.3;;;19.02;100.0
63691;BME280;49837;57.280;27.070;2023-08-06T04:07:34;99769.32;;;19.06;100.0
63691;BME280;49837;57.280;27.070;2023-08-06T04:08:34;99771.59;;;19.07;100.0
63691;BME280;49837;57.280;27.070;2023-08-06T04:10:37;99775.62;;;19.13;100.0
63691;BME280;49837;57.280;27.070;2023-08-06T04:11:38;99778.73;;;19.23;100.0
63691;BME280;49837;57.280;27.070;2023-08-06T04:12:38;99772.81;;;19.23;100.0
63691;BME280;49837;57.280;27.070;2023-08-06T04:13:42;99772.12;;;19.25;100.0
63691;BME280;49837;57.280;27.070;2023-08-06T04:14:39;99770.12;;;19.23;100.0
63691;BME280;49837;57.280;27.070;2023-08-06T04:15:40;99765.88;;;19.23;100.0
63691;BME280;49837;57.280;27.070;2023-08-06T04:16:40;99767.02;;;19.23;100.0
63691;BME280;49837;57.280;27.070;2023-08-06T04:17:41;99767.73;;;19.28;100.0
63691;BME280;49837;57.280;27.070;2023-08-06T04:18:41;99767.66;;;19.22;100.0
63691;BME280;49837;57.280;27.070;2023-08-06T04:19:41;99770.84;;;19.33;100.0
63691;BME280;49837;57.280;27.070;2023-08-06T04:20:50;99769.84;;;19.4;100.0
63691;BME280;49837;57.280;27.070;2023-08-06T04:21:43;99771.71;;;19.43;100.0
63691;BME280;49837;57.280;27.070;2023-08-06T04:22:43;99769.27;;;19.5;100.0
63691;BME280;49837;57.280;27.070;2023-08-06T04:23:43;99767.09;;;19.5;100.0
63691;BME280;49837;57.280;27.070;2023-08-06T04:24:44;99768.45;;;19.51;100.0
63691;BME280;49837;57.280;27.070;2023-08-06T04:25:44;99768.73;;;19.52;100.0
63691;BME280;49837;57.280;27.070;2023-08-06T04:26:45;99765.42;;;19.55;100.0
63691;BME280;49837;57.280;27.070;2023-08-06T04:27:47;99763.75;;;19.57;100.0
63691;BME280;49837;57.280;27.070;2023-08-06T04:28:45;99761.69;;;19.66;100.0
63691;BME280;49837;57.280;27.070;2023-08-06T04:29:46;99761.91;;;19.65;100.0
63691;BME280;49837;57.280;27.070;2023-08-06T04:30:46;99766.0;;;19.63;100.0
63691;BME280;49837;57.280;27.070;2023-08-06T04:31:47;99760.33;;;19.66;100.0
63691;BME280;49837;57.280;27.070;2023-08-06T04:32:49;99759.23;;;19.6;100.0
63691;BME280;49837;57.280;27.070;2023-08-06T04:33:48;99759.91;;;19.6;100.0
63691;BME280;49837;57.280;27.070;2023-08-06T04:34:48;99756.0;;;19.58;100.0
63691;BME280;49837;57.280;27.070;2023-08-06T04:35:56;99760.8;;;19.58;100.0
63691;BME280;49837;57.280;27.070;2023-08-06T04:36:49;99758.47;;;19.59;100.0
63691;BME280;49837;57.280;27.070;2023-08-06T04:37:49;99758.5;;;19.6;100.0
63691;BME280;49837;57.280;27.070;2023-08-06T04:38:50;99757.09;;;19.57;100.0
63691;BME280;49837;57.280;27.070;2023-08-06T04:39:50;99756.61;;;19.62;100.0
63691;BME280;49837;57.280;27.070;2023-08-06T04:40:51;99760.46;;;19.67;100.0
63691;BME280;49837;57.280;27.070;2023-08-06T04:41:51;99757.47;;;19.64;100.0
63691;BME280;49837;57.280;27.070;2023-08-06T04:42:52;99758.59;;;19.67;100.0
63691;BME280;49837;57.280;27.070;2023-08-06T04:43:52;99760.31;;;19.69;100.0
63691;BME280;49837;57.280;27.070;2023-08-06T04:44:52;99760.91;;;19.74;100.0
63691;BME280;49837;57.280;27.070;2023-08-06T04:45:54;99765.36;;;19.8;100.0
63691;BME280;49837;57.280;27.070;2023-08-06T04:46:53;99763.81;;;19.81;100.0
63691;BME280;49837;57.280;27.070;2023-08-06T04:47:55;99757.16;;;19.88;100.0
63691;BME280;49837;57.280;27.070;2023-08-06T04:48:54;99758.19;;;19.94;100.0
63691;BME280;49837;57.280;27.070;2023-08-06T04:49:54;99761.16;;;20.03;100.0
63691;BME280;49837;57.280;27.070;2023-08-06T04:50:55;99765.47;;;20.05;100.0
63691;BME280;49837;57.280;27.070;2023-08-06T04:51:55;99762.62;;;20.1;100.0
63691;BME280;49837;57.280;27.070;2023-08-06T04:52:55;99761.11;;;20.07;100.0
63691;BME280;49837;57.280;27.070;2023-08-06T04:53:57;99760.39;;;20.09;100.0
63691;BME280;49837;57.280;27.070;2023-08-06T04:54:56;99760.85;;;20.1;100.0
63691;BME280;49837;57.280;27.070;2023-08-06T04:55:57;99761.19;;;20.14;100.0
63691;BME280;49837;57.280;27.070;2023-08-06T04:56:57;99759.87;;;20.15;100.0
63691;BME280;49837;57.280;27.070;2023-08-06T04:57:57;99759.06;;;20.13;100.0
63691;BME280;49837;57.280;27.070;2023-08-06T04:58:58;99755.91;;;20.18;100.0
63691;BME280;49837;57.280;27.070;2023-08-06T05:00:01;99759.72;;;20.22;100.0
63691;BME280;49837;57.280;27.070;2023-08-06T05:00:59;99763.22;;;20.23;100.0
63691;BME280;49837;57.280;27.070;2023-08-06T05:01:59;99760.55;;;20.21;100.0
63691;BME280;49837;57.280;27.070;2023-08-06T05:03:00;99760.75;;;20.21;100.0
63691;BME280;49837;57.280;27.070;2023-08-06T05:04:00;99761.41;;;20.19;100.0
63691;BME280;49837;57.280;27.070;2023-08-06T05:05:00;99763.38;;;20.17;100.0
63691;BME280;49837;57.280;27.070;2023-08-06T05:06:01;99768.44;;;20.15;100.0
63691;BME280;49837;57.280;27.070;2023-08-06T05:07:01;99775.05;;;20.2;100.0
63691;BME280;49837;57.280;27.070;2023-08-06T05:08:02;99773.68;;;20.22;100.0
63691;BME280;49837;57.280;27.070;2023-08-06T05:09:02;99781.3;;;20.21;100.0
63691;BME280;49837;57.280;27.070;2023-08-06T05:10:03;99781.42;;;20.18;100.0
63691;BME280;49837;57.280;27.070;2023-08-06T05:11:03;99782.18;;;20.14;100.0
63691;BME280;49837;57.280;27.070;2023-08-06T05:12:04;99783.34;;;20.12;100.0
63691;BME280;49837;57.280;27.070;2023-08-06T05:13:04;99786.78;;;20.15;100.0
63691;BME280;49837;57.280;27.070;2023-08-06T05:14:04;99786.39;;;20.2;100.0
63691;BME280;49837;57.280;27.070;2023-08-06T05:15:05;99784.3;;;20.27;100.0
63691;BME280;49837;57.280;27.070;2023-08-06T05:16:05;99782.23;;;20.23;100.0
63691;BME280;49837;57.280;27.070;2023-08-06T05:17:05;99779.47;;;20.23;100.0
63691;BME280;49837;57.280;27.070;2023-08-06T05:18:06;99782.67;;;20.24;100.0
63691;BME280;49837;57.280;27.070;2023-08-06T05:19:06;99775.62;;;20.21;100.0
63691;BME280;49837;57.280;27.070;2023-08-06T05:20:07;99779.45;;;20.2;100.0
63691;BME280;49837;57.280;27.070;2023-08-06T05:21:07;99781.53;;;20.27;100.0
63691;BME280;49837;57.280;27.070;2023-08-06T05:22:07;99777.57;;;20.3;100.0
63691;BME280;49837;57.280;27.070;2023-08-06T05:23:08;99775.86;;;20.36;100.0
63691;BME280;49837;57.280;27.070;2023-08-06T05:24:08;99776.89;;;20.49;100.0
63691;BME280;49837;57.280;27.070;2023-08-06T05:25:09;99775.3;;;20.52;100.0
63691;BME280;49837;57.280;27.070;2023-08-06T05:26:09;99774.73;;;20.57;100.0
63691;BME280;49837;57.280;27.070;2023-08-06T05:27:09;99774.52;;;20.6;100.0
63691;BME280;49837;57.280;27.070;2023-08-06T05:28:10;99772.31;;;20.6;100.0
63691;BME280;49837;57.280;27.070;2023-08-06T05:29:10;99771.66;;;20.53;100.0